KAC5W OKKK-OTHH
Flight info
| Callsign | KAC5W |
|---|---|
| Flight time | 0h 54m |
| Altitude | 27000 |
| Route | BOXIK B416 IMDOX P975 LONOS L703 HAYYA |
| Aircraft | B77W/H-SDE1E2E3FGHIJ2J3J4J5M1RWXY/LB1D1 |
Departure
| Time | 2026-05-05 10:58 |
|---|---|
| Airport | Kuwait International Airport (OKKK) |
Arrival
| Time | 2026-05-05 11:52 |
|---|---|
| Airport | Hamad International Airport (OTHH) |
| Time | Latitude | Longitude | Altitude | Speed | Heading |
|---|---|---|---|---|---|
| 2026-05-05 10:31 | 29.24947 | 47.96039 | 172 ft | 0 kts | 66° |
| 2026-05-05 10:44 | 29.24953 | 47.96055 | 172 ft | 0 kts | 66° |
| 2026-05-05 10:51 | 29.24936 | 47.96011 | 171 ft | 16 kts | 66° |
| 2026-05-05 10:51 | 29.24907 | 47.95933 | 169 ft | 2 kts | 66° |
| 2026-05-05 10:52 | 29.24906 | 47.95931 | 169 ft | 0 kts | 66° |
| 2026-05-05 10:53 | 29.24905 | 47.95944 | 169 ft | 4 kts | 105° |
| 2026-05-05 10:53 | 29.24863 | 47.95973 | 169 ft | 11 kts | 159° |
| 2026-05-05 10:53 | 29.24782 | 47.96013 | 169 ft | 13 kts | 155° |
| 2026-05-05 10:53 | 29.24701 | 47.96056 | 169 ft | 13 kts | 155° |
| 2026-05-05 10:54 | 29.24619 | 47.96099 | 169 ft | 13 kts | 154° |
| 2026-05-05 10:54 | 29.24539 | 47.96143 | 169 ft | 13 kts | 154° |
| 2026-05-05 10:54 | 29.24457 | 47.96186 | 169 ft | 13 kts | 155° |
| 2026-05-05 10:54 | 29.24376 | 47.96229 | 169 ft | 13 kts | 155° |
| 2026-05-05 10:55 | 29.24294 | 47.96273 | 169 ft | 13 kts | 155° |
| 2026-05-05 10:55 | 29.24234 | 47.96305 | 169 ft | 5 kts | 155° |
| 2026-05-05 10:55 | 29.24211 | 47.96317 | 169 ft | 3 kts | 157° |
| 2026-05-05 10:55 | 29.24175 | 47.96308 | 168 ft | 8 kts | 218° |
| 2026-05-05 10:56 | 29.24142 | 47.96249 | 166 ft | 10 kts | 243° |
| 2026-05-05 10:56 | 29.24093 | 47.96197 | 164 ft | 10 kts | 197° |
| 2026-05-05 10:56 | 29.24024 | 47.96187 | 164 ft | 10 kts | 184° |
| 2026-05-05 10:56 | 29.23970 | 47.96197 | 164 ft | 5 kts | 158° |
| 2026-05-05 10:57 | 29.23968 | 47.96198 | 164 ft | 0 kts | 158° |
| 2026-05-05 10:57 | 29.23900 | 47.96232 | 164 ft | 36 kts | 155° |
| 2026-05-05 10:58 | 29.23383 | 47.96509 | 167 ft | 128 kts | 155° |
| 2026-05-05 10:58 | 29.22321 | 47.97074 | 220 ft | 200 kts | 155° |
| 2026-05-05 10:58 | 29.21039 | 47.97755 | 1041 ft | 205 kts | 153° |
| 2026-05-05 10:58 | 29.19827 | 47.98603 | 2171 ft | 209 kts | 133° |
| 2026-05-05 10:59 | 29.19081 | 48.00151 | 2452 ft | 243 kts | 109° |
| 2026-05-05 10:59 | 29.18559 | 48.02061 | 2982 ft | 257 kts | 113° |
| 2026-05-05 10:59 | 29.17851 | 48.03967 | 3741 ft | 262 kts | 119° |
| 2026-05-05 10:59 | 29.17035 | 48.05848 | 4602 ft | 266 kts | 121° |
| 2026-05-05 11:00 | 29.16172 | 48.07760 | 5331 ft | 273 kts | 122° |
| 2026-05-05 11:00 | 29.15310 | 48.09725 | 5870 ft | 277 kts | 116° |
| 2026-05-05 11:00 | 29.15035 | 48.11922 | 6340 ft | 287 kts | 94° |
| 2026-05-05 11:00 | 29.15072 | 48.14216 | 6972 ft | 296 kts | 94° |
| 2026-05-05 11:01 | 29.15089 | 48.16574 | 7665 ft | 298 kts | 94° |
| 2026-05-05 11:01 | 29.15099 | 48.18959 | 8011 ft | 301 kts | 94° |
| 2026-05-05 11:01 | 29.15107 | 48.21368 | 7988 ft | 303 kts | 94° |
| 2026-05-05 11:01 | 29.15113 | 48.23768 | 8002 ft | 301 kts | 94° |
| 2026-05-05 11:02 | 29.15117 | 48.26160 | 8002 ft | 300 kts | 94° |
| 2026-05-05 11:02 | 29.15118 | 48.28544 | 8003 ft | 300 kts | 94° |
| 2026-05-05 11:02 | 29.15119 | 48.30936 | 7999 ft | 300 kts | 94° |
| 2026-05-05 11:02 | 29.15000 | 48.33287 | 7977 ft | 290 kts | 110° |
| 2026-05-05 11:03 | 29.14137 | 48.35300 | 8097 ft | 278 kts | 134° |
| 2026-05-05 11:03 | 29.12853 | 48.36977 | 8717 ft | 285 kts | 136° |
| 2026-05-05 11:03 | 29.11529 | 48.38703 | 9436 ft | 292 kts | 135° |
| 2026-05-05 11:03 | 29.10179 | 48.40466 | 10183 ft | 297 kts | 136° |
| 2026-05-05 11:04 | 29.08779 | 48.42290 | 10646 ft | 316 kts | 136° |
| 2026-05-05 11:04 | 29.07266 | 48.44254 | 10824 ft | 343 kts | 135° |
| 2026-05-05 11:04 | 29.05653 | 48.46351 | 11006 ft | 368 kts | 135° |
| 2026-05-05 11:04 | 29.03919 | 48.48612 | 11387 ft | 386 kts | 135° |
| 2026-05-05 11:05 | 29.02132 | 48.50952 | 11988 ft | 396 kts | 135° |
| 2026-05-05 11:05 | 29.00308 | 48.53343 | 12706 ft | 402 kts | 135° |
| 2026-05-05 11:05 | 28.98459 | 48.55764 | 13484 ft | 407 kts | 135° |
| 2026-05-05 11:05 | 28.96582 | 48.58219 | 14180 ft | 413 kts | 135° |
| 2026-05-05 11:06 | 28.94677 | 48.60707 | 14877 ft | 418 kts | 135° |
| 2026-05-05 11:06 | 28.92749 | 48.63222 | 15577 ft | 423 kts | 135° |
| 2026-05-05 11:06 | 28.90792 | 48.65773 | 16256 ft | 429 kts | 135° |
| 2026-05-05 11:06 | 28.88810 | 48.68355 | 16939 ft | 435 kts | 135° |
| 2026-05-05 11:07 | 28.86802 | 48.70970 | 17644 ft | 440 kts | 135° |
| 2026-05-05 11:07 | 28.84770 | 48.73615 | 18287 ft | 445 kts | 135° |
| 2026-05-05 11:07 | 28.82717 | 48.76286 | 18921 ft | 449 kts | 135° |
| 2026-05-05 11:07 | 28.80653 | 48.78977 | 19612 ft | 452 kts | 134° |
| 2026-05-05 11:08 | 28.78838 | 48.81875 | 20232 ft | 460 kts | 125° |
| 2026-05-05 11:08 | 28.77280 | 48.85083 | 20850 ft | 465 kts | 122° |
| 2026-05-05 11:08 | 28.75772 | 48.88367 | 21488 ft | 469 kts | 122° |
| 2026-05-05 11:08 | 28.74248 | 48.91670 | 22142 ft | 472 kts | 122° |
| 2026-05-05 11:09 | 28.72689 | 48.94969 | 22769 ft | 475 kts | 123° |
| 2026-05-05 11:09 | 28.71088 | 48.98280 | 23332 ft | 478 kts | 123° |
| 2026-05-05 11:09 | 28.69459 | 49.01601 | 23806 ft | 483 kts | 124° |
| 2026-05-05 11:09 | 28.67804 | 49.04953 | 24251 ft | 487 kts | 124° |
| 2026-05-05 11:10 | 28.66134 | 49.08332 | 24685 ft | 492 kts | 124° |
| 2026-05-05 11:10 | 28.64445 | 49.11753 | 25148 ft | 496 kts | 124° |
| 2026-05-05 11:10 | 28.62749 | 49.15191 | 25584 ft | 500 kts | 124° |
| 2026-05-05 11:10 | 28.61058 | 49.18609 | 26014 ft | 502 kts | 125° |
| 2026-05-05 11:11 | 28.59096 | 49.21888 | 26342 ft | 500 kts | 135° |
| 2026-05-05 11:11 | 28.56652 | 49.24692 | 26703 ft | 497 kts | 146° |
| 2026-05-05 11:11 | 28.53888 | 49.27022 | 27125 ft | 492 kts | 154° |
| 2026-05-05 11:11 | 28.50911 | 49.28882 | 27467 ft | 489 kts | 156° |
| 2026-05-05 11:12 | 28.48023 | 49.31073 | 27708 ft | 505 kts | 147° |
| 2026-05-05 11:12 | 28.45402 | 49.33703 | 28090 ft | 512 kts | 143° |
| 2026-05-05 11:12 | 28.42794 | 49.36471 | 28499 ft | 514 kts | 143° |
| 2026-05-05 11:12 | 28.40151 | 49.39218 | 28874 ft | 516 kts | 144° |
| 2026-05-05 11:13 | 28.37464 | 49.41926 | 29303 ft | 516 kts | 145° |
| 2026-05-05 11:13 | 28.34750 | 49.44607 | 29812 ft | 516 kts | 146° |
| 2026-05-05 11:13 | 28.32039 | 49.47272 | 30264 ft | 515 kts | 146° |
| 2026-05-05 11:13 | 28.29341 | 49.49932 | 30716 ft | 514 kts | 146° |
| 2026-05-05 11:14 | 28.26630 | 49.52612 | 30742 ft | 518 kts | 146° |
| 2026-05-05 11:14 | 28.21197 | 49.57945 | 30744 ft | 512 kts | 148° |
| 2026-05-05 11:15 | 28.15596 | 49.62773 | 30754 ft | 509 kts | 150° |
| 2026-05-05 11:15 | 28.09910 | 49.67596 | 30773 ft | 514 kts | 150° |
| 2026-05-05 11:16 | 28.04131 | 49.72545 | 30769 ft | 526 kts | 150° |
| 2026-05-05 11:16 | 27.98112 | 49.77319 | 30774 ft | 531 kts | 153° |
| 2026-05-05 11:17 | 27.91953 | 49.82009 | 30763 ft | 534 kts | 153° |
| 2026-05-05 11:17 | 27.85861 | 49.86742 | 30754 ft | 534 kts | 152° |
| 2026-05-05 11:18 | 27.79736 | 49.91510 | 30764 ft | 534 kts | 153° |
| 2026-05-05 11:18 | 27.73597 | 49.96233 | 30765 ft | 534 kts | 153° |
| 2026-05-05 11:19 | 27.67454 | 50.00948 | 30756 ft | 534 kts | 153° |
| 2026-05-05 11:19 | 27.61317 | 50.05663 | 30757 ft | 529 kts | 153° |
| 2026-05-05 11:20 | 27.55293 | 50.10291 | 30757 ft | 521 kts | 153° |
| 2026-05-05 11:20 | 27.49315 | 50.14866 | 30764 ft | 523 kts | 153° |
| 2026-05-05 11:21 | 27.43287 | 50.19495 | 30762 ft | 525 kts | 152° |
| 2026-05-05 11:21 | 27.37351 | 50.24339 | 30762 ft | 528 kts | 150° |
| 2026-05-05 11:22 | 27.31430 | 50.29230 | 30761 ft | 527 kts | 151° |
| 2026-05-05 11:22 | 27.25486 | 50.34070 | 30761 ft | 526 kts | 151° |
| 2026-05-05 11:23 | 27.19583 | 50.38845 | 30762 ft | 525 kts | 151° |
| 2026-05-05 11:23 | 27.13699 | 50.43608 | 30752 ft | 513 kts | 151° |
| 2026-05-05 11:24 | 27.07948 | 50.48252 | 30758 ft | 511 kts | 151° |
| 2026-05-05 11:24 | 27.02174 | 50.52905 | 30763 ft | 511 kts | 151° |
| 2026-05-05 11:25 | 26.97331 | 50.56811 | 30754 ft | 513 kts | 149° |
| 2026-05-05 11:25 | 26.91838 | 50.61879 | 30767 ft | 516 kts | 147° |
| 2026-05-05 11:26 | 26.86333 | 50.67078 | 30622 ft | 519 kts | 146° |
| 2026-05-05 11:26 | 26.83562 | 50.69683 | 30307 ft | 519 kts | 146° |
| 2026-05-05 11:26 | 26.80800 | 50.72271 | 30005 ft | 515 kts | 146° |
| 2026-05-05 11:26 | 26.78060 | 50.74831 | 29685 ft | 510 kts | 146° |
| 2026-05-05 11:27 | 26.75345 | 50.77362 | 29329 ft | 505 kts | 146° |
| 2026-05-05 11:27 | 26.72649 | 50.79871 | 28974 ft | 501 kts | 146° |
| 2026-05-05 11:27 | 26.70013 | 50.82321 | 28640 ft | 497 kts | 146° |
| 2026-05-05 11:27 | 26.67361 | 50.84784 | 28303 ft | 493 kts | 146° |
| 2026-05-05 11:28 | 26.64726 | 50.87231 | 27969 ft | 489 kts | 146° |
| 2026-05-05 11:28 | 26.62114 | 50.89654 | 27626 ft | 486 kts | 145° |
| 2026-05-05 11:28 | 26.59515 | 50.92063 | 27300 ft | 483 kts | 145° |
| 2026-05-05 11:28 | 26.56936 | 50.94454 | 26986 ft | 481 kts | 145° |
| 2026-05-05 11:29 | 26.54369 | 50.96832 | 26659 ft | 478 kts | 144° |
| 2026-05-05 11:29 | 26.51808 | 50.99204 | 26345 ft | 476 kts | 144° |
| 2026-05-05 11:29 | 26.49262 | 51.01560 | 26034 ft | 474 kts | 144° |
| 2026-05-05 11:29 | 26.46733 | 51.03899 | 25723 ft | 471 kts | 144° |
| 2026-05-05 11:30 | 26.44211 | 51.06231 | 25403 ft | 469 kts | 144° |
| 2026-05-05 11:30 | 26.41704 | 51.08548 | 25111 ft | 467 kts | 143° |
| 2026-05-05 11:30 | 26.39208 | 51.10853 | 24810 ft | 465 kts | 143° |
| 2026-05-05 11:30 | 26.36722 | 51.13147 | 24520 ft | 463 kts | 143° |
| 2026-05-05 11:31 | 26.34245 | 51.15436 | 24227 ft | 461 kts | 143° |
| 2026-05-05 11:31 | 26.31813 | 51.17686 | 23944 ft | 459 kts | 143° |
| 2026-05-05 11:31 | 26.29363 | 51.19950 | 23660 ft | 457 kts | 142° |
| 2026-05-05 11:31 | 26.26918 | 51.22209 | 23368 ft | 454 kts | 142° |
| 2026-05-05 11:32 | 26.24490 | 51.24450 | 23042 ft | 452 kts | 142° |
| 2026-05-05 11:32 | 26.22073 | 51.26681 | 22699 ft | 450 kts | 142° |
| 2026-05-05 11:32 | 26.19671 | 51.28897 | 22374 ft | 447 kts | 142° |
| 2026-05-05 11:32 | 26.17274 | 51.31107 | 22033 ft | 445 kts | 142° |
| 2026-05-05 11:33 | 26.14923 | 51.33273 | 21708 ft | 443 kts | 142° |
| 2026-05-05 11:33 | 26.12558 | 51.35452 | 21378 ft | 440 kts | 142° |
| 2026-05-05 11:33 | 26.10205 | 51.37618 | 21059 ft | 438 kts | 142° |
| 2026-05-05 11:33 | 26.07851 | 51.39771 | 20698 ft | 436 kts | 143° |
| 2026-05-05 11:34 | 26.05394 | 51.41716 | 20350 ft | 432 kts | 149° |
| 2026-05-05 11:34 | 26.02855 | 51.43505 | 20032 ft | 429 kts | 149° |
| 2026-05-05 11:34 | 26.00332 | 51.45265 | 19694 ft | 427 kts | 149° |
| 2026-05-05 11:34 | 25.97827 | 51.47014 | 19357 ft | 424 kts | 149° |
| 2026-05-05 11:35 | 25.95336 | 51.48760 | 19049 ft | 422 kts | 149° |
| 2026-05-05 11:35 | 25.92862 | 51.50501 | 18718 ft | 419 kts | 149° |
| 2026-05-05 11:35 | 25.90404 | 51.52235 | 18393 ft | 417 kts | 149° |
| 2026-05-05 11:35 | 25.87991 | 51.53940 | 18102 ft | 414 kts | 149° |
| 2026-05-05 11:36 | 25.85567 | 51.55653 | 17742 ft | 412 kts | 149° |
| 2026-05-05 11:36 | 25.83152 | 51.57359 | 17364 ft | 410 kts | 149° |
| 2026-05-05 11:36 | 25.80747 | 51.59056 | 17021 ft | 408 kts | 149° |
| 2026-05-05 11:36 | 25.78350 | 51.60749 | 16668 ft | 407 kts | 149° |
| 2026-05-05 11:37 | 25.75972 | 51.62427 | 16315 ft | 405 kts | 149° |
| 2026-05-05 11:37 | 25.73594 | 51.64104 | 15987 ft | 404 kts | 148° |
| 2026-05-05 11:37 | 25.71228 | 51.65771 | 15653 ft | 402 kts | 148° |
| 2026-05-05 11:37 | 25.68867 | 51.67434 | 15335 ft | 401 kts | 148° |
| 2026-05-05 11:38 | 25.66511 | 51.69093 | 15025 ft | 399 kts | 148° |
| 2026-05-05 11:38 | 25.64169 | 51.70741 | 14751 ft | 398 kts | 148° |
| 2026-05-05 11:38 | 25.61835 | 51.72383 | 14476 ft | 396 kts | 148° |
| 2026-05-05 11:38 | 25.59535 | 51.74000 | 14212 ft | 396 kts | 148° |
| 2026-05-05 11:39 | 25.57210 | 51.75635 | 13951 ft | 395 kts | 148° |
| 2026-05-05 11:39 | 25.54916 | 51.77247 | 13706 ft | 394 kts | 148° |
| 2026-05-05 11:39 | 25.52593 | 51.78852 | 13434 ft | 389 kts | 152° |
| 2026-05-05 11:39 | 25.50046 | 51.79846 | 13126 ft | 390 kts | 174° |
| 2026-05-05 11:40 | 25.47344 | 51.79754 | 12881 ft | 389 kts | 193° |
| 2026-05-05 11:40 | 25.44804 | 51.78815 | 12529 ft | 383 kts | 210° |
| 2026-05-05 11:40 | 25.42529 | 51.77367 | 12106 ft | 369 kts | 213° |
| 2026-05-05 11:40 | 25.40335 | 51.75913 | 11592 ft | 372 kts | 213° |
| 2026-05-05 11:41 | 25.38071 | 51.74440 | 11079 ft | 380 kts | 212° |
| 2026-05-05 11:41 | 25.35794 | 51.72994 | 10514 ft | 368 kts | 212° |
| 2026-05-05 11:41 | 25.33581 | 51.71628 | 10000 ft | 366 kts | 207° |
| 2026-05-05 11:41 | 25.31165 | 51.70886 | 9395 ft | 363 kts | 184° |
| 2026-05-05 11:42 | 25.28677 | 51.71171 | 8855 ft | 365 kts | 165° |
| 2026-05-05 11:42 | 25.26263 | 51.72163 | 8341 ft | 373 kts | 158° |
| 2026-05-05 11:42 | 25.23884 | 51.73257 | 7773 ft | 363 kts | 158° |
| 2026-05-05 11:42 | 25.21566 | 51.74312 | 7233 ft | 360 kts | 158° |
| 2026-05-05 11:43 | 25.19227 | 51.75351 | 6718 ft | 364 kts | 158° |
| 2026-05-05 11:43 | 25.16859 | 51.76395 | 6205 ft | 365 kts | 158° |
| 2026-05-05 11:43 | 25.14561 | 51.77402 | 5623 ft | 344 kts | 158° |
| 2026-05-05 11:43 | 25.12409 | 51.78345 | 5064 ft | 332 kts | 158° |
| 2026-05-05 11:44 | 25.10309 | 51.79266 | 4520 ft | 317 kts | 158° |
| 2026-05-05 11:44 | 25.08299 | 51.80144 | 3954 ft | 304 kts | 158° |
| 2026-05-05 11:44 | 25.06366 | 51.80988 | 3708 ft | 295 kts | 158° |
| 2026-05-05 11:44 | 25.04471 | 51.81811 | 3548 ft | 287 kts | 159° |
| 2026-05-05 11:45 | 25.02597 | 51.82257 | 3504 ft | 269 kts | 183° |
| 2026-05-05 11:45 | 25.00861 | 51.81741 | 3489 ft | 251 kts | 213° |
| 2026-05-05 11:45 | 24.99691 | 51.80440 | 3484 ft | 235 kts | 246° |
| 2026-05-05 11:45 | 24.99327 | 51.78735 | 3505 ft | 228 kts | 274° |
| 2026-05-05 11:46 | 24.99667 | 51.77055 | 3496 ft | 225 kts | 302° |
| 2026-05-05 11:46 | 25.00591 | 51.75684 | 3543 ft | 224 kts | 313° |
| 2026-05-05 11:46 | 25.01629 | 51.74421 | 3555 ft | 227 kts | 314° |
| 2026-05-05 11:46 | 25.02710 | 51.73135 | 3504 ft | 228 kts | 314° |
| 2026-05-05 11:47 | 25.03780 | 51.71864 | 3489 ft | 223 kts | 314° |
| 2026-05-05 11:47 | 25.04847 | 51.70622 | 3497 ft | 223 kts | 315° |
| 2026-05-05 11:47 | 25.05957 | 51.69428 | 3492 ft | 224 kts | 325° |
| 2026-05-05 11:47 | 25.07318 | 51.68597 | 3530 ft | 224 kts | 336° |
| 2026-05-05 11:48 | 25.10160 | 51.67315 | 3047 ft | 210 kts | 339° |
| 2026-05-05 11:48 | 25.11467 | 51.66745 | 2808 ft | 194 kts | 339° |
| 2026-05-05 11:48 | 25.12647 | 51.66230 | 2561 ft | 173 kts | 338° |
| 2026-05-05 11:49 | 25.13702 | 51.65763 | 2349 ft | 159 kts | 339° |
| 2026-05-05 11:49 | 25.14723 | 51.65314 | 2170 ft | 158 kts | 339° |
| 2026-05-05 11:49 | 25.15763 | 51.64854 | 1990 ft | 163 kts | 339° |
| 2026-05-05 11:49 | 25.16811 | 51.64395 | 1763 ft | 161 kts | 338° |
| 2026-05-05 11:50 | 25.17837 | 51.63942 | 1578 ft | 156 kts | 339° |
| 2026-05-05 11:50 | 25.18836 | 51.63502 | 1363 ft | 159 kts | 339° |
| 2026-05-05 11:50 | 25.19884 | 51.63038 | 1191 ft | 165 kts | 339° |
| 2026-05-05 11:50 | 25.20942 | 51.62574 | 961 ft | 163 kts | 338° |
| 2026-05-05 11:51 | 25.21977 | 51.62095 | 778 ft | 158 kts | 341° |
| 2026-05-05 11:51 | 25.23003 | 51.61623 | 625 ft | 163 kts | 341° |
| 2026-05-05 11:51 | 25.24098 | 51.61177 | 400 ft | 171 kts | 342° |
| 2026-05-05 11:51 | 25.25183 | 51.60697 | 148 ft | 163 kts | 342° |
| 2026-05-05 11:52 | 25.26211 | 51.60241 | 35 ft | 151 kts | 342° |
| 2026-05-05 11:52 | 25.27020 | 51.59890 | 30 ft | 93 kts | 339° |
| 2026-05-05 11:52 | 25.27410 | 51.59718 | 31 ft | 32 kts | 338° |
| 2026-05-05 11:52 | 25.27521 | 51.59770 | 32 ft | 16 kts | 66° |
| 2026-05-05 11:53 | 25.27522 | 51.59862 | 34 ft | 10 kts | 132° |
| 2026-05-05 11:53 | 25.27460 | 51.59899 | 34 ft | 10 kts | 157° |
| 2026-05-05 11:53 | 25.27394 | 51.59928 | 33 ft | 10 kts | 158° |
| 2026-05-05 11:53 | 25.27329 | 51.59957 | 34 ft | 10 kts | 158° |
| 2026-05-05 11:54 | 25.27263 | 51.59986 | 34 ft | 10 kts | 158° |
| 2026-05-05 11:54 | 25.27197 | 51.60015 | 34 ft | 10 kts | 158° |
| 2026-05-05 11:54 | 25.27131 | 51.60043 | 33 ft | 10 kts | 158° |
| 2026-05-05 11:54 | 25.27066 | 51.60074 | 33 ft | 10 kts | 157° |
| 2026-05-05 11:55 | 25.27000 | 51.60102 | 33 ft | 10 kts | 159° |
| 2026-05-05 11:55 | 25.26934 | 51.60130 | 33 ft | 10 kts | 159° |
| 2026-05-05 11:55 | 25.26868 | 51.60159 | 33 ft | 10 kts | 157° |
| 2026-05-05 11:55 | 25.26804 | 51.60190 | 33 ft | 10 kts | 157° |
| 2026-05-05 11:56 | 25.26738 | 51.60217 | 33 ft | 10 kts | 159° |
| 2026-05-05 11:56 | 25.26671 | 51.60245 | 33 ft | 10 kts | 159° |
| 2026-05-05 11:56 | 25.26606 | 51.60275 | 33 ft | 10 kts | 157° |
| 2026-05-05 11:56 | 25.26540 | 51.60305 | 34 ft | 10 kts | 158° |
| 2026-05-05 11:57 | 25.26476 | 51.60333 | 34 ft | 10 kts | 158° |
| 2026-05-05 11:57 | 25.26410 | 51.60362 | 34 ft | 10 kts | 159° |
| 2026-05-05 11:57 | 25.26344 | 51.60390 | 34 ft | 10 kts | 159° |
| 2026-05-05 11:57 | 25.26278 | 51.60419 | 34 ft | 10 kts | 158° |
| 2026-05-05 11:58 | 25.26213 | 51.60449 | 34 ft | 10 kts | 158° |
| 2026-05-05 11:58 | 25.26147 | 51.60478 | 34 ft | 10 kts | 158° |
| 2026-05-05 11:58 | 25.26085 | 51.60506 | 34 ft | 7 kts | 158° |
| 2026-05-05 11:58 | 25.26054 | 51.60548 | 34 ft | 8 kts | 101° |
| 2026-05-05 11:59 | 25.26059 | 51.60590 | 34 ft | 1 kts | 70° |
| 2026-05-05 11:59 | 25.26062 | 51.60599 | 35 ft | 1 kts | 68° |
| 2026-05-05 11:59 | 25.26075 | 51.60635 | 35 ft | 8 kts | 68° |
| 2026-05-05 11:59 | 25.26096 | 51.60694 | 35 ft | 8 kts | 68° |
| 2026-05-05 12:00 | 25.26118 | 51.60752 | 35 ft | 8 kts | 68° |
| 2026-05-05 12:00 | 25.26137 | 51.60804 | 35 ft | 5 kts | 68° |
| 2026-05-05 12:00 | 25.26144 | 51.60847 | 35 ft | 6 kts | 112° |
| 2026-05-05 12:00 | 25.26111 | 51.60876 | 35 ft | 6 kts | 147° |
| 2026-05-05 12:01 | 25.26092 | 51.60889 | 35 ft | 2 kts | 148° |
| 2026-05-05 12:01 | 25.26081 | 51.60896 | 35 ft | 2 kts | 149° |
| 2026-05-05 12:01 | 25.26070 | 51.60904 | 35 ft | 2 kts | 148° |
| 2026-05-05 12:01 | 25.26066 | 51.60906 | 35 ft | 0 kts | 148° |